sensor_id;sensor_type;location;lat;lon;timestamp;pressure;altitude;pressure_sealevel;temperature;humidity
41712;BME280;27399;51.516;13.670;2023-05-20T00:01:37;101351.09;;;16.47;74.37
41712;BME280;27399;51.516;13.670;2023-05-20T00:04:02;101353.75;;;16.49;74.38
41712;BME280;27399;51.516;13.670;2023-05-20T00:06:28;101353.88;;;16.41;74.20
41712;BME280;27399;51.516;13.670;2023-05-20T00:08:54;101348.41;;;16.47;74.31
41712;BME280;27399;51.516;13.670;2023-05-20T00:11:20;101357.41;;;16.46;74.00
41712;BME280;27399;51.516;13.670;2023-05-20T00:13:46;101352.13;;;16.40;75.07
41712;BME280;27399;51.516;13.670;2023-05-20T00:16:11;101348.50;;;16.41;74.85
41712;BME280;27399;51.516;13.670;2023-05-20T00:18:37;101348.50;;;16.42;74.54
41712;BME280;27399;51.516;13.670;2023-05-20T00:21:02;101346.94;;;16.29;74.70
41712;BME280;27399;51.516;13.670;2023-05-20T00:23:28;101350.63;;;16.23;74.64
41712;BME280;27399;51.516;13.670;2023-05-20T00:25:54;101347.75;;;16.33;74.64
41712;BME280;27399;51.516;13.670;2023-05-20T00:28:19;101350.56;;;16.26;74.72
41712;BME280;27399;51.516;13.670;2023-05-20T00:30:47;101351.53;;;16.24;74.91
41712;BME280;27399;51.516;13.670;2023-05-20T00:33:13;101352.50;;;16.18;75.10
41712;BME280;27399;51.516;13.670;2023-05-20T00:35:38;101350.03;;;16.06;75.53
41712;BME280;27399;51.516;13.670;2023-05-20T00:38:04;101356.63;;;15.83;76.24
41712;BME280;27399;51.516;13.670;2023-05-20T00:40:30;101352.72;;;16.06;76.12
41712;BME280;27399;51.516;13.670;2023-05-20T00:42:55;101345.50;;;16.08;75.65
41712;BME280;27399;51.516;13.670;2023-05-20T00:45:21;101341.25;;;15.94;75.64
41712;BME280;27399;51.516;13.670;2023-05-20T00:47:47;101329.50;;;16.00;75.58
41712;BME280;27399;51.516;13.670;2023-05-20T00:50:13;101329.81;;;15.77;76.55
41712;BME280;27399;51.516;13.670;2023-05-20T00:52:38;101336.91;;;15.84;76.10
41712;BME280;27399;51.516;13.670;2023-05-20T00:55:06;101330.69;;;15.79;76.30
41712;BME280;27399;51.516;13.670;2023-05-20T00:57:31;101345.34;;;15.56;77.24
41712;BME280;27399;51.516;13.670;2023-05-20T00:59:57;101336.91;;;15.84;76.28
41712;BME280;27399;51.516;13.670;2023-05-20T01:02:23;101331.53;;;15.81;76.48
41712;BME280;27399;51.516;13.670;2023-05-20T01:04:49;101335.19;;;15.77;76.60
41712;BME280;27399;51.516;13.670;2023-05-20T01:07:16;101332.56;;;15.72;76.65
41712;BME280;27399;51.516;13.670;2023-05-20T01:09:42;101332.38;;;15.88;76.47
41712;BME280;27399;51.516;13.670;2023-05-20T01:12:25;101328.81;;;15.86;76.62
41712;BME280;27399;51.516;13.670;2023-05-20T01:15:00;101334.22;;;15.81;76.73
41712;BME280;27399;51.516;13.670;2023-05-20T01:17:30;101321.75;;;15.77;76.75
41712;BME280;27399;51.516;13.670;2023-05-20T01:20:00;101324.34;;;15.83;76.52
41712;BME280;27399;51.516;13.670;2023-05-20T01:22:26;101327.38;;;15.61;77.50
41712;BME280;27399;51.516;13.670;2023-05-20T01:24:52;101329.88;;;15.74;77.30
41712;BME280;27399;51.516;13.670;2023-05-20T01:27:19;101322.59;;;15.79;77.25
41712;BME280;27399;51.516;13.670;2023-05-20T01:29:49;101322.69;;;15.76;77.01
41712;BME280;27399;51.516;13.670;2023-05-20T01:32:49;101327.94;;;15.82;77.08
41712;BME280;27399;51.516;13.670;2023-05-20T01:35:16;101323.56;;;15.76;77.21
41712;BME280;27399;51.516;13.670;2023-05-20T01:37:42;101321.78;;;15.75;77.25
41712;BME280;27399;51.516;13.670;2023-05-20T01:40:10;101326.22;;;15.78;76.97
41712;BME280;27399;51.516;13.670;2023-05-20T01:42:38;101319.91;;;15.79;77.12
41712;BME280;27399;51.516;13.670;2023-05-20T01:49:04;101318.25;;;15.72;77.25
41712;BME280;27399;51.516;13.670;2023-05-20T01:51:30;101320.97;;;15.69;77.45
41712;BME280;27399;51.516;13.670;2023-05-20T01:53:57;101327.38;;;15.61;77.55
41712;BME280;27399;51.516;13.670;2023-05-20T01:56:23;101328.28;;;15.60;77.96
41712;BME280;27399;51.516;13.670;2023-05-20T01:58:49;101325.56;;;15.62;78.05
41712;BME280;27399;51.516;13.670;2023-05-20T02:01:14;101327.34;;;15.63;77.92
41712;BME280;27399;51.516;13.670;2023-05-20T02:03:40;101321.13;;;15.59;78.29
41712;BME280;27399;51.516;13.670;2023-05-20T02:06:05;101320.28;;;15.56;78.34
41712;BME280;27399;51.516;13.670;2023-05-20T02:08:31;101322.03;;;15.60;78.01
41712;BME280;27399;51.516;13.670;2023-05-20T02:10:56;101329.19;;;15.59;78.17
41712;BME280;27399;51.516;13.670;2023-05-20T02:13:22;101324.75;;;15.57;78.26
41712;BME280;27399;51.516;13.670;2023-05-20T02:15:48;101330.81;;;15.70;77.56
41712;BME280;27399;51.516;13.670;2023-05-20T02:18:13;101337.06;;;15.72;77.44
41712;BME280;27399;51.516;13.670;2023-05-20T02:20:42;101333.66;;;15.60;78.08
41712;BME280;27399;51.516;13.670;2023-05-20T02:23:08;101338.19;;;15.57;78.12
41712;BME280;27399;51.516;13.670;2023-05-20T02:25:34;101335.44;;;15.61;78.07
41712;BME280;27399;51.516;13.670;2023-05-20T02:28:00;101332.84;;;15.55;78.30
41712;BME280;27399;51.516;13.670;2023-05-20T02:30:26;101325.59;;;15.60;78.13
41712;BME280;27399;51.516;13.670;2023-05-20T02:32:51;101326.59;;;15.53;78.54
41712;BME280;27399;51.516;13.670;2023-05-20T02:35:17;101331.94;;;15.55;78.57
41712;BME280;27399;51.516;13.670;2023-05-20T02:37:42;101322.78;;;15.67;78.14
41712;BME280;27399;51.516;13.670;2023-05-20T02:40:09;101325.59;;;15.60;78.65
41712;BME280;27399;51.516;13.670;2023-05-20T02:42:35;101332.63;;;15.68;78.01
41712;BME280;27399;51.516;13.670;2023-05-20T02:45:00;101320.91;;;15.75;77.72
41712;BME280;27399;51.516;13.670;2023-05-20T02:47:26;101316.44;;;15.74;77.53
41712;BME280;27399;51.516;13.670;2023-05-20T02:49:52;101325.53;;;15.65;78.37
41712;BME280;27399;51.516;13.670;2023-05-20T02:52:17;101325.34;;;15.77;77.28
41712;BME280;27399;51.516;13.670;2023-05-20T02:54:43;101324.44;;;15.77;78.02
41712;BME280;27399;51.516;13.670;2023-05-20T02:57:09;101323.50;;;15.79;77.64
41712;BME280;27399;51.516;13.670;2023-05-20T02:59:34;101320.78;;;15.81;78.05
41712;BME280;27399;51.516;13.670;2023-05-20T03:02:00;101327.94;;;15.82;78.04
41712;BME280;27399;51.516;13.670;2023-05-20T03:04:25;101327.03;;;15.83;77.61
41712;BME280;27399;51.516;13.670;2023-05-20T03:06:52;101322.56;;;15.85;78.06
41712;BME280;27399;51.516;13.670;2023-05-20T03:09:18;101322.59;;;15.80;78.21
41712;BME280;27399;51.516;13.670;2023-05-20T03:11:44;101322.56;;;15.85;77.99
41712;BME280;27399;51.516;13.670;2023-05-20T03:14:11;101322.78;;;15.67;78.18
41712;BME280;27399;51.516;13.670;2023-05-20T03:16:37;101328.81;;;15.83;77.75
41712;BME280;27399;51.516;13.670;2023-05-20T03:19:02;101321.81;;;15.74;78.54
41712;BME280;27399;51.516;13.670;2023-05-20T03:21:28;101321.66;;;15.85;77.88
41712;BME280;27399;51.516;13.670;2023-05-20T03:23:54;101317.97;;;15.92;78.06
41712;BME280;27399;51.516;13.670;2023-05-20T03:26:20;101324.38;;;15.82;77.76
41712;BME280;27399;51.516;13.670;2023-05-20T03:28:46;101324.22;;;15.92;77.46
41712;BME280;27399;51.516;13.670;2023-05-20T03:31:11;101320.78;;;15.84;77.82
41712;BME280;27399;51.516;13.670;2023-05-20T03:33:37;101318.16;;;15.76;78.70
41712;BME280;27399;51.516;13.670;2023-05-20T03:36:03;101315.44;;;15.78;78.16
41712;BME280;27399;51.516;13.670;2023-05-20T03:38:29;101315.56;;;15.72;78.34
41712;BME280;27399;51.516;13.670;2023-05-20T03:40:55;101315.28;;;15.90;78.24
41712;BME280;27399;51.516;13.670;2023-05-20T03:43:21;101314.34;;;15.93;77.79
41712;BME280;27399;51.516;13.670;2023-05-20T03:45:46;101321.63;;;15.88;78.00
41712;BME280;27399;51.516;13.670;2023-05-20T03:48:12;101315.38;;;15.87;78.17
41712;BME280;27399;51.516;13.670;2023-05-20T03:50:37;101309.97;;;15.87;78.60
41712;BME280;27399;51.516;13.670;2023-05-20T03:53:03;101300.00;;;15.92;77.93
41712;BME280;27399;51.516;13.670;2023-05-20T03:55:28;101295.66;;;15.85;78.51
41712;BME280;27399;51.516;13.670;2023-05-20T03:57:54;101295.66;;;15.85;78.71
41712;BME280;27399;51.516;13.670;2023-05-20T04:00:20;101293.72;;;15.93;78.15
41712;BME280;27399;51.516;13.670;2023-05-20T04:06:07;101298.16;;;15.98;77.68
41712;BME280;27399;51.516;13.670;2023-05-20T04:08:33;101289.94;;;16.05;78.04
41712;BME280;27399;51.516;13.670;2023-05-20T04:11:01;101291.06;;;15.90;78.40
41712;BME280;27399;51.516;13.670;2023-05-20T04:13:27;101292.03;;;15.88;78.49
41712;BME280;27399;51.516;13.670;2023-05-20T04:15:53;101293.69;;;15.97;78.11
41712;BME280;27399;51.516;13.670;2023-05-20T04:18:18;101297.03;;;16.09;77.47
41712;BME280;27399;51.516;13.670;2023-05-20T04:20:45;101292.69;;;16.01;78.42
41712;BME280;27399;51.516;13.670;2023-05-20T04:23:11;101288.06;;;16.09;78.29
41712;BME280;27399;51.516;13.670;2023-05-20T04:25:36;101294.75;;;15.83;78.73
41712;BME280;27399;51.516;13.670;2023-05-20T04:28:03;101289.84;;;16.10;78.14
41712;BME280;27399;51.516;13.670;2023-05-20T04:30:29;101293.31;;;16.17;77.73
41712;BME280;27399;51.516;13.670;2023-05-20T04:32:58;101293.56;;;16.03;78.06
41712;BME280;27399;51.516;13.670;2023-05-20T04:35:23;101292.50;;;16.13;77.91
41712;BME280;27399;51.516;13.670;2023-05-20T04:37:50;101291.53;;;16.16;77.84
41712;BME280;27399;51.516;13.670;2023-05-20T04:40:18;101283.38;;;16.22;77.78
41712;BME280;27399;51.516;13.670;2023-05-20T04:42:45;101293.53;;;16.06;77.96
41712;BME280;27399;51.516;13.670;2023-05-20T04:45:11;101303.22;;;16.15;78.40
41712;BME280;27399;51.516;13.670;2023-05-20T04:47:38;101296.69;;;15.75;78.71
41712;BME280;27399;51.516;13.670;2023-05-20T04:50:08;101296.41;;;15.93;78.29
41712;BME280;27399;51.516;13.670;2023-05-20T04:52:37;101297.78;;;16.18;78.18
41712;BME280;27399;51.516;13.670;2023-05-20T04:55:07;101296.53;;;15.87;78.51
41712;BME280;27399;51.516;13.670;2023-05-20T04:57:37;101295.50;;;15.93;78.54
41712;BME280;27399;51.516;13.670;2023-05-20T05:00:11;101291.44;;;16.20;77.75
41712;BME280;27399;51.516;13.670;2023-05-20T05:02:37;101291.28;;;16.30;77.87
41712;BME280;27399;51.516;13.670;2023-05-20T05:05:03;101284.63;;;16.01;78.37
41712;BME280;27399;51.516;13.670;2023-05-20T05:07:29;101290.22;;;15.88;78.77
41712;BME280;27399;51.516;13.670;2023-05-20T05:09:55;101283.22;;;16.30;77.85
41712;BME280;27399;51.516;13.670;2023-05-20T05:12:20;101296.91;;;16.17;78.32
41712;BME280;27399;51.516;13.670;2023-05-20T05:14:46;101292.53;;;16.11;78.31
41712;BME280;27399;51.516;13.670;2023-05-20T05:17:12;101291.28;;;16.31;77.88
41712;BME280;27399;51.516;13.670;2023-05-20T05:19:37;101298.22;;;16.43;77.88
41712;BME280;27399;51.516;13.670;2023-05-20T05:22:03;101303.78;;;16.34;78.46
41712;BME280;27399;51.516;13.670;2023-05-20T05:24:29;101296.44;;;16.42;77.44
41712;BME280;27399;51.516;13.670;2023-05-20T05:26:55;101293.56;;;16.51;77.25
41712;BME280;27399;51.516;13.670;2023-05-20T05:29:20;101294.66;;;16.41;78.14
41712;BME280;27399;51.516;13.670;2023-05-20T05:31:46;101303.84;;;15.76;78.88
41712;BME280;27399;51.516;13.670;2023-05-20T05:34:12;101305.56;;;16.35;78.55
41712;BME280;27399;51.516;13.670;2023-05-20T05:39:55;101315.44;;;16.34;78.53
41712;BME280;27399;51.516;13.670;2023-05-20T05:42:21;101316.09;;;16.46;78.36
41712;BME280;27399;51.516;13.670;2023-05-20T05:44:47;101314.28;;;16.49;78.53
41712;BME280;27399;51.516;13.670;2023-05-20T05:47:13;101320.63;;;16.45;78.80
41712;BME280;27399;51.516;13.670;2023-05-20T05:49:38;101323.72;;;16.70;78.37
41712;BME280;27399;51.516;13.670;2023-05-20T05:52:04;101314.78;;;16.70;78.08
41712;BME280;27399;51.516;13.670;2023-05-20T05:54:30;101320.31;;;16.62;77.44
41712;BME280;27399;51.516;13.670;2023-05-20T05:56:55;101309.06;;;16.85;77.82
41712;BME280;27399;51.516;13.670;2023-05-20T05:59:21;101312.75;;;16.81;78.00
41712;BME280;27399;51.516;13.670;2023-05-20T06:01:47;101307.75;;;16.61;77.88
41712;BME280;27399;51.516;13.670;2023-05-20T06:04:50;101303.56;;;16.92;77.30
41712;BME280;27399;51.516;13.670;2023-05-20T06:07:17;101301.66;;;16.51;78.22
41712;BME280;27399;51.516;13.670;2023-05-20T06:09:43;101313.22;;;16.56;78.53
41712;BME280;27399;51.516;13.670;2023-05-20T06:12:09;101307.03;;;16.51;78.17
41712;BME280;27399;51.516;13.670;2023-05-20T06:14:34;101302.31;;;16.64;77.71
41712;BME280;27399;51.516;13.670;2023-05-20T06:17:03;101302.94;;;16.77;77.93
41712;BME280;27399;51.516;13.670;2023-05-20T06:19:41;101295.47;;;16.92;77.09
41712;BME280;27399;51.516;13.670;2023-05-20T06:22:07;101300.03;;;16.88;77.99
41712;BME280;27399;51.516;13.670;2023-05-20T06:24:33;101300.09;;;16.85;77.11
41712;BME280;27399;51.516;13.670;2023-05-20T06:26:59;101297.22;;;16.96;77.04
41712;BME280;27399;51.516;13.670;2023-05-20T06:29:24;101285.72;;;16.84;78.06
41712;BME280;27399;51.516;13.670;2023-05-20T06:31:50;101285.34;;;17.04;77.00
41712;BME280;27399;51.516;13.670;2023-05-20T06:34:16;101283.94;;;16.85;77.43
41712;BME280;27399;51.516;13.670;2023-05-20T06:36:41;101285.63;;;16.89;78.11
41712;BME280;27399;51.516;13.670;2023-05-20T06:39:07;101283.38;;;16.69;77.86
41712;BME280;27399;51.516;13.670;2023-05-20T06:41:39;101289.56;;;16.72;77.56
41712;BME280;27399;51.516;13.670;2023-05-20T06:44:05;101287.41;;;16.92;77.02
41712;BME280;27399;51.516;13.670;2023-05-20T06:46:32;101293.75;;;16.87;77.58
41712;BME280;27399;51.516;13.670;2023-05-20T06:48:58;101287.56;;;16.84;77.16
41712;BME280;27399;51.516;13.670;2023-05-20T06:51:23;101277.66;;;16.84;77.27
41712;BME280;27399;51.516;13.670;2023-05-20T06:53:49;101293.22;;;16.70;77.29
41712;BME280;27399;51.516;13.670;2023-05-20T06:56:15;101281.03;;;16.96;77.36
41712;BME280;27399;51.516;13.670;2023-05-20T06:58:41;101278.03;;;16.66;77.36
41712;BME280;27399;51.516;13.670;2023-05-20T07:01:07;101266.97;;;16.81;77.28
41712;BME280;27399;51.516;13.670;2023-05-20T07:03:32;101276.81;;;16.82;77.51
41712;BME280;27399;51.516;13.670;2023-05-20T07:05:58;101270.63;;;16.77;77.23
41712;BME280;27399;51.516;13.670;2023-05-20T07:08:23;101270.31;;;16.93;77.01
41712;BME280;27399;51.516;13.670;2023-05-20T07:10:49;101274.91;;;16.87;77.45
41712;BME280;27399;51.516;13.670;2023-05-20T07:13:15;101277.59;;;16.87;77.11
41712;BME280;27399;51.516;13.670;2023-05-20T07:15:41;101273.16;;;16.85;77.08
41712;BME280;27399;51.516;13.670;2023-05-20T07:18:06;101271.38;;;16.84;77.75
41712;BME280;27399;51.516;13.670;2023-05-20T07:20:32;101266.81;;;16.87;76.85
41712;BME280;27399;51.516;13.670;2023-05-20T07:22:58;101273.56;;;17.10;76.84
41712;BME280;27399;51.516;13.670;2023-05-20T07:25:23;101268.66;;;16.85;77.41
41712;BME280;27399;51.516;13.670;2023-05-20T07:27:49;101256.72;;;16.99;76.55
41712;BME280;27399;51.516;13.670;2023-05-20T07:30:14;101262.13;;;16.99;77.55
41712;BME280;27399;51.516;13.670;2023-05-20T07:32:40;101266.31;;;17.12;76.89
41712;BME280;27399;51.516;13.670;2023-05-20T07:35:06;101265.41;;;17.12;76.02
41712;BME280;27399;51.516;13.670;2023-05-20T07:37:32;101266.88;;;17.27;76.08
41712;BME280;27399;51.516;13.670;2023-05-20T07:39:58;101263.91;;;17.00;77.34
41712;BME280;27399;51.516;13.670;2023-05-20T07:42:23;101264.81;;;17.38;75.88
41712;BME280;27399;51.516;13.670;2023-05-20T07:44:49;101266.88;;;17.28;76.51
41712;BME280;27399;51.516;13.670;2023-05-20T07:47:14;101268.22;;;17.46;76.41
41712;BME280;27399;51.516;13.670;2023-05-20T07:49:40;101265.03;;;17.29;76.05
41712;BME280;27399;51.516;13.670;2023-05-20T07:52:06;101253.28;;;17.31;75.88
41712;BME280;27399;51.516;13.670;2023-05-20T07:54:33;101267.22;;;17.50;75.46
41712;BME280;27399;51.516;13.670;2023-05-20T07:56:59;101280.72;;;17.11;76.10
41712;BME280;27399;51.516;13.670;2023-05-20T07:59:25;101264.69;;;17.44;75.52
41712;BME280;27399;51.516;13.670;2023-05-20T08:01:51;101267.53;;;17.38;76.06
41712;BME280;27399;51.516;13.670;2023-05-20T08:04:16;101271.44;;;17.25;76.73
41712;BME280;27399;51.516;13.670;2023-05-20T08:06:42;101275.00;;;17.25;75.45
41712;BME280;27399;51.516;13.670;2023-05-20T08:09:09;101270.16;;;17.41;75.88
41712;BME280;27399;51.516;13.670;2023-05-20T08:11:34;101266.94;;;17.63;74.80
41712;BME280;27399;51.516;13.670;2023-05-20T08:14:00;101269.97;;;17.49;75.44
41712;BME280;27399;51.516;13.670;2023-05-20T08:16:26;101260.09;;;17.84;74.63
41712;BME280;27399;51.516;13.670;2023-05-20T08:18:52;101252.63;;;17.97;74.61
41712;BME280;27399;51.516;13.670;2023-05-20T08:21:18;101254.69;;;17.86;74.44
41712;BME280;27399;51.516;13.670;2023-05-20T08:23:43;101249.38;;;18.17;74.22
41712;BME280;27399;51.516;13.670;2023-05-20T08:26:09;101247.06;;;18.36;73.07
41712;BME280;27399;51.516;13.670;2023-05-20T08:28:35;101240.28;;;18.21;74.05
41712;BME280;27399;51.516;13.670;2023-05-20T08:31:04;101232.72;;;18.34;73.26
41712;BME280;27399;51.516;13.670;2023-05-20T08:33:29;101238.94;;;18.38;73.29
41712;BME280;27399;51.516;13.670;2023-05-20T08:35:55;101225.22;;;18.46;72.84
41712;BME280;27399;51.516;13.670;2023-05-20T08:38:21;101232.97;;;18.58;73.47
41712;BME280;27399;51.516;13.670;2023-05-20T08:40:54;101233.03;;;18.56;72.65
41712;BME280;27399;51.516;13.670;2023-05-20T08:43:21;101235.84;;;18.52;72.21
41712;BME280;27399;51.516;13.670;2023-05-20T08:45:48;101218.97;;;18.73;72.17
41712;BME280;27399;51.516;13.670;2023-05-20T08:48:16;101224.88;;;18.88;70.90
41712;BME280;27399;51.516;13.670;2023-05-20T08:50:45;101233.22;;;19.39;70.87
41712;BME280;27399;51.516;13.670;2023-05-20T08:53:12;101224.25;;;19.38;70.15
41712;BME280;27399;51.516;13.670;2023-05-20T08:55:44;101216.16;;;19.36;69.94
41712;BME280;27399;51.516;13.670;2023-05-20T08:58:11;101210.13;;;19.28;70.35
41712;BME280;27399;51.516;13.670;2023-05-20T09:00:37;101217.34;;;19.56;69.33
41712;BME280;27399;51.516;13.670;2023-05-20T09:03:03;101218.16;;;19.58;69.47
41712;BME280;27399;51.516;13.670;2023-05-20T09:12:13;101212.41;;;19.96;68.74
41712;BME280;27399;51.516;13.670;2023-05-20T09:14:39;101220.47;;;19.71;68.94
41712;BME280;27399;51.516;13.670;2023-05-20T09:17:05;101195.69;;;19.83;69.56
41712;BME280;27399;51.516;13.670;2023-05-20T09:19:32;101203.69;;;20.13;69.69
41712;BME280;27399;51.516;13.670;2023-05-20T09:21:58;101204.19;;;20.24;68.84
41712;BME280;27399;51.516;13.670;2023-05-20T09:24:25;101213.97;;;20.28;68.05
41712;BME280;27399;51.516;13.670;2023-05-20T09:26:51;101217.34;;;20.35;68.50
41712;BME280;27399;51.516;13.670;2023-05-20T09:29:17;101217.72;;;20.24;67.31
41712;BME280;27399;51.516;13.670;2023-05-20T09:31:45;101225.13;;;20.19;68.30
41712;BME280;27399;51.516;13.670;2023-05-20T09:34:11;101215.28;;;20.42;67.22
41712;BME280;27399;51.516;13.670;2023-05-20T09:36:38;101220.91;;;20.36;68.26
41712;BME280;27399;51.516;13.670;2023-05-20T09:39:08;101222.59;;;19.89;67.90
41712;BME280;27399;51.516;13.670;2023-05-20T09:41:56;101209.59;;;20.24;67.51
41712;BME280;27399;51.516;13.670;2023-05-20T09:44:28;101219.00;;;20.14;68.21
41712;BME280;27399;51.516;13.670;2023-05-20T09:46:55;101213.69;;;20.11;68.95
41712;BME280;27399;51.516;13.670;2023-05-20T09:49:22;101212.88;;;20.09;68.61
41712;BME280;27399;51.516;13.670;2023-05-20T09:51:50;101222.91;;;20.05;68.57
41712;BME280;27399;51.516;13.670;2023-05-20T09:54:18;101205.22;;;19.95;69.09
41712;BME280;27399;51.516;13.670;2023-05-20T09:56:45;101201.88;;;20.37;68.09
41712;BME280;27399;51.516;13.670;2023-05-20T09:59:14;101204.56;;;20.39;67.89
41712;BME280;27399;51.516;13.670;2023-05-20T10:01:41;101193.72;;;20.39;69.01
41712;BME280;27399;51.516;13.670;2023-05-20T10:04:08;101197.41;;;20.85;68.56
41712;BME280;27399;51.516;13.670;2023-05-20T10:12:05;101184.06;;;21.25;67.11
41712;BME280;27399;51.516;13.670;2023-05-20T10:15:03;101195.06;;;21.44;65.70
41712;BME280;27399;51.516;13.670;2023-05-20T10:18:05;101186.03;;;21.21;65.83
41712;BME280;27399;51.516;13.670;2023-05-20T10:20:44;101177.00;;;21.43;66.20
41712;BME280;27399;51.516;13.670;2023-05-20T10:23:22;101178.78;;;21.44;65.60
41712;BME280;27399;51.516;13.670;2023-05-20T10:25:53;101180.41;;;21.26;66.22
41712;BME280;27399;51.516;13.670;2023-05-20T10:28:33;101188.47;;;21.72;65.04
41712;BME280;27399;51.516;13.670;2023-05-20T10:31:00;101167.88;;;21.89;64.08
41712;BME280;27399;51.516;13.670;2023-05-20T10:33:27;101175.72;;;21.95;66.50
41712;BME280;27399;51.516;13.670;2023-05-20T10:35:57;101166.22;;;21.85;66.53
41712;BME280;27399;51.516;13.670;2023-05-20T10:38:23;101158.19;;;22.02;66.60
41712;BME280;27399;51.516;13.670;2023-05-20T10:40:49;101156.59;;;21.98;64.93
41712;BME280;27399;51.516;13.670;2023-05-20T10:43:16;101158.56;;;21.94;64.83
41712;BME280;27399;51.516;13.670;2023-05-20T10:45:54;101148.97;;;22.06;65.13
41712;BME280;27399;51.516;13.670;2023-05-20T10:50:48;101147.84;;;22.31;64.47
41712;BME280;27399;51.516;13.670;2023-05-20T10:53:14;101140.84;;;21.65;64.02
41712;BME280;27399;51.516;13.670;2023-05-20T10:55:46;101131.78;;;21.64;64.17
41712;BME280;27399;51.516;13.670;2023-05-20T10:58:13;101134.06;;;21.75;64.71
41712;BME280;27399;51.516;13.670;2023-05-20T11:00:39;101122.03;;;22.02;64.97
41712;BME280;27399;51.516;13.670;2023-05-20T11:03:05;101120.28;;;21.80;65.61
41712;BME280;27399;51.516;13.670;2023-05-20T11:05:32;101117.47;;;22.02;64.17
41712;BME280;27399;51.516;13.670;2023-05-20T11:08:08;101120.31;;;22.20;64.05
41712;BME280;27399;51.516;13.670;2023-05-20T11:10:34;101106.41;;;22.26;64.91
41712;BME280;27399;51.516;13.670;2023-05-20T11:13:02;101116.53;;;22.43;64.19
41712;BME280;27399;51.516;13.670;2023-05-20T11:15:29;101120.69;;;22.31;64.30
41712;BME280;27399;51.516;13.670;2023-05-20T11:17:58;101121.88;;;22.44;63.83
41712;BME280;27399;51.516;13.670;2023-05-20T11:20:24;101102.28;;;21.98;63.34
41712;BME280;27399;51.516;13.670;2023-05-20T11:22:51;101116.59;;;22.80;64.54
41712;BME280;27399;51.516;13.670;2023-05-20T11:25:17;101110.28;;;22.79;63.32
41712;BME280;27399;51.516;13.670;2023-05-20T11:27:44;101104.41;;;22.88;63.14
41712;BME280;27399;51.516;13.670;2023-05-20T11:30:14;101101.19;;;23.17;62.38
41712;BME280;27399;51.516;13.670;2023-05-20T11:33:01;101102.50;;;22.90;61.80
41712;BME280;27399;51.516;13.670;2023-05-20T11:35:29;101106.59;;;23.54;62.35
41712;BME280;27399;51.516;13.670;2023-05-20T11:38:00;101104.56;;;23.75;61.54
41712;BME280;27399;51.516;13.670;2023-05-20T11:40:30;101101.53;;;23.63;60.41
41712;BME280;27399;51.516;13.670;2023-05-20T11:42:58;101069.56;;;24.02;60.97
41712;BME280;27399;51.516;13.670;2023-05-20T11:45:24;101109.94;;;24.27;60.68
41712;BME280;27399;51.516;13.670;2023-05-20T11:48:00;101100.56;;;24.33;60.11
41712;BME280;27399;51.516;13.670;2023-05-20T11:50:26;101094.56;;;24.26;60.23
41712;BME280;27399;51.516;13.670;2023-05-20T11:52:59;101085.69;;;24.39;60.27
41712;BME280;27399;51.516;13.670;2023-05-20T11:55:25;101080.44;;;24.84;59.15
41712;BME280;27399;51.516;13.670;2023-05-20T11:57:53;101082.03;;;24.88;59.00
41712;BME280;27399;51.516;13.670;2023-05-20T12:00:21;101082.22;;;24.69;58.24
41712;BME280;27399;51.516;13.670;2023-05-20T12:02:47;101075.03;;;25.14;57.77
41712;BME280;27399;51.516;13.670;2023-05-20T12:05:12;101070.03;;;25.06;58.05
41712;BME280;27399;51.516;13.670;2023-05-20T12:07:38;101075.31;;;25.10;57.98
41712;BME280;27399;51.516;13.670;2023-05-20T12:10:04;101070.66;;;25.12;58.34
41712;BME280;27399;51.516;13.670;2023-05-20T12:12:30;101066.03;;;25.28;57.92
41712;BME280;27399;51.516;13.670;2023-05-20T12:14:56;101075.59;;;25.05;57.28
41712;BME280;27399;51.516;13.670;2023-05-20T12:17:21;101071.81;;;24.91;59.24
41712;BME280;27399;51.516;13.670;2023-05-20T12:19:47;101051.25;;;24.70;58.43
41712;BME280;27399;51.516;13.670;2023-05-20T12:22:12;101065.41;;;24.93;58.66
41712;BME280;27399;51.516;13.670;2023-05-20T12:24:38;101065.50;;;24.91;59.91
41712;BME280;27399;51.516;13.670;2023-05-20T12:27:04;101045.69;;;24.87;58.17
41712;BME280;27399;51.516;13.670;2023-05-20T12:29:31;101048.94;;;24.78;59.28
41712;BME280;27399;51.516;13.670;2023-05-20T12:31:56;101047.63;;;25.01;58.92
41712;BME280;27399;51.516;13.670;2023-05-20T12:34:22;101044.28;;;24.80;59.42
41712;BME280;27399;51.516;13.670;2023-05-20T12:36:48;101038.25;;;24.75;59.25
41712;BME280;27399;51.516;13.670;2023-05-20T12:39:13;101028.25;;;25.06;59.27
41712;BME280;27399;51.516;13.670;2023-05-20T12:41:42;101024.78;;;24.72;58.13
41712;BME280;27399;51.516;13.670;2023-05-20T12:44:07;101021.59;;;24.80;58.37
41712;BME280;27399;51.516;13.670;2023-05-20T12:46:34;101021.03;;;25.05;58.04
41712;BME280;27399;51.516;13.670;2023-05-20T12:49:00;101020.38;;;24.85;58.06
41712;BME280;27399;51.516;13.670;2023-05-20T12:51:26;101032.28;;;24.99;58.20
41712;BME280;27399;51.516;13.670;2023-05-20T12:53:52;101025.63;;;24.56;58.29
41712;BME280;27399;51.516;13.670;2023-05-20T12:56:17;101022.41;;;25.12;59.14
41712;BME280;27399;51.516;13.670;2023-05-20T12:58:43;101016.22;;;25.25;57.87
41712;BME280;27399;51.516;13.670;2023-05-20T13:01:09;101004.00;;;25.46;58.08
41712;BME280;27399;51.516;13.670;2023-05-20T13:03:35;101009.88;;;25.38;57.81
41712;BME280;27399;51.516;13.670;2023-05-20T13:06:00;101000.22;;;25.33;57.20